Time;durP1;ratioP1;P1;durP2;ratioP2;P2;SDS_P1;SDS_P2;PMS_P1;PMS_P2;Temp;Humidity;BMP_temperature;BMP_pressure;BME280_temperature;BME280_humidity;BME280_pressure;Samples;Min_cycle;Max_cycle;Signal;HPM_P1;HPM_P2
2022/02/06 00:00:35;;;;;;;83.88;44.20;;;;;;;2.07;100.00;93672.94;5010707;28;20049;-81
2022/02/06 00:03:02;;;;;;;93.45;46.85;;;;;;;2.22;100.00;93692.69;5010683;28;20045;-81
2022/02/06 00:05:29;;;;;;;92.07;50.28;;;;;;;2.29;100.00;93708.09;5010659;28;20044;-82
2022/02/06 00:07:57;;;;;;;88.80;47.20;;;;;;;2.29;100.00;93708.91;5010705;28;20132;-81
2022/02/06 00:10:25;;;;;;;90.53;47.72;;;;;;;2.25;100.00;93695.72;5010559;28;20053;-80
2022/02/06 00:12:52;;;;;;;89.18;47.53;;;;;;;2.05;100.00;93679.09;5010177;28;20057;-81
2022/02/06 00:15:21;;;;;;;86.95;45.83;;;;;;;2.20;100.00;93705.50;5009753;28;20571;-81
2022/02/06 00:17:49;;;;;;;82.78;44.78;;;;;;;2.15;100.00;93707.69;5010248;28;20136;-81
2022/02/06 00:20:16;;;;;;;83.10;45.85;;;;;;;2.00;100.00;93704.88;5010178;28;20400;-81
2022/02/06 00:22:47;;;;;;;84.63;44.65;;;;;;;2.08;100.00;93717.59;5010193;28;20046;-81
2022/02/06 00:25:22;;;;;;;77.57;42.80;;;;;;;2.10;100.00;93720.81;5009857;28;20042;-81
2022/02/06 00:28:01;;;;;;;75.68;42.40;;;;;;;2.09;100.00;93716.66;5010073;28;20046;-81
2022/02/06 00:30:33;;;;;;;56.05;31.85;;;;;;;1.75;100.00;93713.97;5009917;28;20441;-81
2022/02/06 00:33:04;;;;;;;46.55;28.42;;;;;;;1.41;100.00;93706.00;5010091;28;20042;-81
2022/02/06 00:35:49;;;;;;;40.33;23.00;;;;;;;1.60;100.00;93715.25;5010298;28;20137;-81
2022/02/06 00:38:26;;;;;;;37.50;23.00;;;;;;;1.72;100.00;93720.88;5010126;28;20049;-81
2022/02/06 00:41:12;;;;;;;29.95;17.90;;;;;;;1.79;100.00;93717.78;5010157;28;20054;-81
2022/02/06 00:43:40;;;;;;;18.40;13.00;;;;;;;1.87;100.00;93717.88;5010185;28;20125;-81
2022/02/06 00:46:09;;;;;;;25.65;13.75;;;;;;;1.97;100.00;93728.75;5010121;28;20096;-81
2022/02/06 00:48:39;;;;;;;20.08;12.93;;;;;;;2.06;100.00;93721.22;5009999;28;20119;-81
2022/02/06 00:51:11;;;;;;;22.67;14.13;;;;;;;2.14;100.00;93722.09;5009810;28;20128;-81
2022/02/06 00:53:38;;;;;;;22.80;15.35;;;;;;;2.05;100.00;93707.75;5010092;28;20048;-81
2022/02/06 00:56:05;;;;;;;19.95;13.07;;;;;;;2.20;100.00;93725.78;5009916;28;20042;-81
2022/02/06 00:58:32;;;;;;;27.70;17.92;;;;;;;2.12;100.00;93693.56;5010093;28;20064;-81
2022/02/06 01:01:01;;;;;;;30.33;17.52;;;;;;;2.27;100.00;93721.72;5009752;28;20046;-81
2022/02/06 01:03:27;;;;;;;28.08;19.40;;;;;;;2.16;100.00;93695.81;5009614;28;20045;-81
2022/02/06 01:05:54;;;;;;;26.80;16.08;;;;;;;2.32;100.00;93723.03;5009930;28;20054;-81
2022/02/06 01:08:21;;;;;;;23.15;15.23;;;;;;;2.35;100.00;93725.25;5009860;28;20046;-81
2022/02/06 01:10:48;;;;;;;17.90;12.07;;;;;;;2.00;100.00;93669.38;5009530;28;20046;-81
2022/02/06 01:13:22;;;;;;;18.00;12.48;;;;;;;2.04;100.00;93682.56;5009406;28;20042;-81
2022/02/06 01:15:54;;;;;;;18.55;12.75;;;;;;;2.29;100.00;93703.84;5010334;28;20046;-80
2022/02/06 01:18:32;;;;;;;18.50;12.25;;;;;;;2.14;100.00;93698.50;5010421;28;20137;-81
2022/02/06 01:21:03;;;;;;;18.67;11.80;;;;;;;2.08;100.00;93689.72;5009228;28;20144;-80
2022/02/06 01:23:39;;;;;;;17.92;12.02;;;;;;;2.20;100.00;93697.09;5009829;28;20053;-81
2022/02/06 01:26:14;;;;;;;19.42;12.32;;;;;;;2.07;100.00;93684.78;5010317;28;20105;-81
2022/02/06 01:28:47;;;;;;;20.40;14.32;;;;;;;2.14;100.00;93685.81;5013542;28;20038;-81
2022/02/06 01:31:28;;;;;;;20.30;12.75;;;;;;;2.22;100.00;93692.69;5013255;28;20088;-81
2022/02/06 01:34:00;;;;;;;19.05;12.93;;;;;;;2.29;100.00;93695.44;5013518;28;20129;-81
2022/02/06 01:36:36;;;;;;;21.25;12.88;;;;;;;2.25;100.00;93679.72;5013258;28;20242;-81
2022/02/06 01:39:12;;;;;;;21.75;12.45;;;;;;;2.35;100.00;93698.19;5013710;28;20038;-81
2022/02/06 01:41:42;;;;;;;29.30;17.23;;;;;;;2.37;100.00;93693.75;5013235;28;20046;-81
2022/02/06 01:44:24;;;;;;;33.35;19.92;;;;;;;2.43;100.00;93704.25;5013464;28;20050;-81
2022/02/06 01:57:09;;;;;;;45.03;24.20;;;;;;;2.38;100.00;93684.41;5013028;28;20112;-81
2022/02/06 02:00:58;;;;;;;37.28;19.42;;;;;;;2.47;100.00;93691.16;5013229;28;20141;-81
2022/02/06 02:03:38;;;;;;;40.78;19.67;;;;;;;2.40;100.00;93678.25;5013080;28;20064;-81
2022/02/06 02:12:14;;;;;;;40.22;24.08;;;;;;;2.43;100.00;93687.31;5012781;28;20452;-82
2022/02/06 02:15:06;;;;;;;43.25;24.77;;;;;;;2.43;100.00;93702.50;5012592;28;20045;-82
2022/02/06 02:17:46;;;;;;;31.30;20.55;;;;;;;2.38;100.00;93695.38;5012439;28;20050;-82
2022/02/06 02:29:26;;;;;;;36.10;21.00;;;;;;;2.22;100.00;93690.16;5127862;28;20046;-79
2022/02/06 02:43:02;;;;;;;34.47;20.10;;;;;;;2.03;100.00;93701.25;5127530;28;20192;-79
2022/02/06 02:45:49;;;;;;;33.65;20.65;;;;;;;1.90;100.00;93691.47;5127581;28;20047;-78
2022/02/06 02:48:18;;;;;;;33.35;20.20;;;;;;;1.94;100.00;93711.28;5127308;28;20050;-79
2022/02/06 02:50:51;;;;;;;45.53;25.48;;;;;;;1.89;100.00;93712.69;5127526;28;20394;-79
2022/02/06 02:53:24;;;;;;;49.38;26.83;;;;;;;1.79;100.00;93716.06;5127082;28;20044;-79
2022/02/06 02:56:03;;;;;;;36.90;20.55;;;;;;;1.76;100.00;93713.81;5127209;28;20044;-79
2022/02/06 02:58:44;;;;;;;37.63;21.67;;;;;;;1.66;100.00;93703.72;5126916;28;20624;-78
2022/02/06 03:01:20;;;;;;;38.42;21.33;;;;;;;1.69;100.00;93720.38;5126847;28;20047;-78
2022/02/06 03:03:48;;;;;;;44.28;24.50;;;;;;;1.67;100.00;93722.28;5127211;28;20043;-79
2022/02/06 03:06:14;;;;;;;70.40;32.00;;;;;;;1.46;100.00;93713.97;5126714;28;20047;-79
2022/02/06 03:08:43;;;;;;;44.55;23.95;;;;;;;1.42;100.00;93720.25;5126808;28;20043;-79
2022/02/06 03:11:11;;;;;;;47.92;24.85;;;;;;;1.41;100.00;93703.47;5126823;28;20104;-78
2022/02/06 03:13:45;;;;;;;56.08;28.20;;;;;;;1.40;100.00;93721.34;5127021;28;20035;-78
2022/02/06 03:16:23;;;;;;;49.42;25.48;;;;;;;1.39;100.00;93724.81;5127131;28;20104;-78
2022/02/06 03:18:58;;;;;;;48.67;26.10;;;;;;;1.39;100.00;93727.34;5126911;28;20055;-78
2022/02/06 03:21:27;;;;;;;42.90;22.35;;;;;;;1.30;100.00;93721.38;5126281;28;20052;-80
2022/02/06 03:23:56;;;;;;;41.72;22.67;;;;;;;1.04;100.00;93691.66;5126691;28;20406;-80
2022/02/06 03:26:26;;;;;;;31.88;18.77;;;;;;;1.08;100.00;93712.41;5126776;28;20084;-80
2022/02/06 03:28:54;;;;;;;31.65;17.48;;;;;;;1.06;100.00;93717.59;5126623;28;20050;-81
2022/02/06 03:31:22;;;;;;;30.48;18.58;;;;;;;1.02;100.00;93727.19;5126620;28;20116;-80
2022/02/06 03:33:51;;;;;;;28.95;17.55;;;;;;;0.96;100.00;93732.03;5117472;28;20044;-80
2022/02/06 03:36:18;;;;;;;32.30;17.67;;;;;;;0.83;100.00;93717.16;5112663;28;20048;-77
2022/02/06 03:38:47;;;;;;;35.45;21.73;;;;;;;0.72;100.00;93729.00;5112523;28;20044;-79
2022/02/06 03:41:16;;;;;;;34.10;19.48;;;;;;;0.63;100.00;93723.03;5112529;28;20054;-77
2022/02/06 03:43:52;;;;;;;51.38;27.38;;;;;;;0.70;100.00;93722.50;5112442;28;20445;-79
2022/02/06 03:46:26;;;;;;;35.35;20.80;;;;;;;0.69;100.00;93723.44;5112409;28;20519;-78
2022/02/06 03:48:57;;;;;;;27.40;16.88;;;;;;;0.59;100.00;93709.06;5112149;28;20130;-78
2022/02/06 03:51:31;;;;;;;24.73;15.57;;;;;;;0.63;100.00;93737.41;5112221;28;20079;-78
2022/02/06 03:53:58;;;;;;;21.80;13.35;;;;;;;0.47;100.00;93726.09;5112485;28;20048;-78
2022/02/06 03:56:26;;;;;;;25.52;15.23;;;;;;;0.53;100.00;93742.47;5112161;28;20043;-78
2022/02/06 03:58:55;;;;;;;35.30;20.00;;;;;;;0.49;100.00;93743.66;5112350;28;20048;-78
2022/02/06 04:01:21;;;;;;;63.65;27.80;;;;;;;0.43;100.00;93736.63;5112052;28;20495;-78
2022/02/06 04:03:48;;;;;;;69.82;30.63;;;;;;;0.39;100.00;93726.00;5112227;28;20380;-78
2022/02/06 04:06:15;;;;;;;36.67;20.52;;;;;;;0.35;100.00;93728.00;5112269;28;20044;-79
2022/02/06 04:08:43;;;;;;;31.67;16.85;;;;;;;0.36;100.00;93726.25;5112297;28;20485;-78
2022/02/06 04:11:14;;;;;;;28.33;17.67;;;;;;;0.38;100.00;93737.03;5112222;28;20043;-79
2022/02/06 04:13:53;;;;;;;24.00;12.50;;;;;;;0.26;100.00;93731.31;5112176;28;20394;-78
2022/02/06 04:16:27;;;;;;;23.40;14.18;;;;;;;0.29;100.00;93737.84;5111806;28;20048;-78
2022/02/06 04:19:05;;;;;;;22.58;13.52;;;;;;;0.08;100.00;93716.00;5111667;28;20045;-78
2022/02/06 04:21:33;;;;;;;22.08;14.18;;;;;;;0.23;100.00;93734.91;5111201;28;20537;-79
2022/02/06 04:24:00;;;;;;;22.95;13.85;;;;;;;0.22;100.00;93735.03;5112082;28;20093;-78
2022/02/06 04:26:27;;;;;;;22.42;13.30;;;;;;;0.18;100.00;93741.31;5112011;28;20050;-77
2022/02/06 04:28:55;;;;;;;23.33;14.35;;;;;;;-0.13;100.00;93722.00;5112167;28;20469;-79
2022/02/06 04:31:23;;;;;;;20.73;12.93;;;;;;;0.04;100.00;93742.50;5112393;28;20048;-77
2022/02/06 04:33:51;;;;;;;22.23;14.32;;;;;;;0.03;100.00;93744.19;5111849;28;20043;-77
2022/02/06 04:36:20;;;;;;;25.48;14.77;;;;;;;-0.16;100.00;93743.25;5111411;28;20039;-76
2022/02/06 04:38:58;;;;;;;24.77;14.80;;;;;;;-0.20;100.00;93731.81;5111758;28;20046;-76
2022/02/06 04:41:47;;;;;;;21.63;13.15;;;;;;;-0.13;100.00;93747.25;5111673;28;20375;-76
2022/02/06 05:14:55;;;;;;;74.53;38.90;;;;;;;-0.69;100.00;93747.63;5090696;28;20075;-77
2022/02/06 05:17:51;;;;;;;71.03;38.92;;;;;;;-0.70;100.00;93756.13;5090594;28;20047;-78
2022/02/06 05:23:24;;;;;;;39.75;20.83;;;;;;;-0.74;100.00;93749.72;5089347;28;20470;-79
2022/02/06 05:26:23;;;;;;;26.20;15.65;;;;;;;-0.82;100.00;93742.78;5093947;28;20097;-78
2022/02/06 05:28:54;;;;;;;23.52;13.50;;;;;;;-0.86;100.00;93750.75;5093141;28;20392;-77
2022/02/06 05:31:32;;;;;;;25.13;15.10;;;;;;;-0.93;100.00;93763.06;5102413;28;20044;-77
2022/02/06 05:33:59;;;;;;;24.38;15.60;;;;;;;-0.97;100.00;93767.56;5102222;28;20051;-77
2022/02/06 05:36:27;;;;;;;24.02;14.50;;;;;;;-0.99;100.00;93766.06;5110291;28;20036;-77
2022/02/06 05:38:54;;;;;;;22.30;14.80;;;;;;;-1.03;100.00;93757.19;5110369;28;20050;-77
2022/02/06 05:41:21;;;;;;;54.15;26.73;;;;;;;-1.02;100.00;93766.34;5095755;28;20055;-77
2022/02/06 05:43:50;;;;;;;34.72;19.70;;;;;;;-1.04;100.00;93773.22;5110088;28;20548;-78
2022/02/06 05:46:17;;;;;;;31.25;18.65;;;;;;;-1.11;100.00;93757.81;5109933;28;20503;-75
2022/02/06 05:48:43;;;;;;;26.42;14.93;;;;;;;-1.08;100.00;93776.00;5110356;28;20141;-75
2022/02/06 05:51:10;;;;;;;28.02;17.27;;;;;;;-1.12;100.00;93776.34;5110335;28;20044;-75
2022/02/06 05:53:40;;;;;;;30.00;17.75;;;;;;;-1.16;100.00;93777.53;5110332;28;20093;-76
2022/02/06 05:56:07;;;;;;;23.85;15.13;;;;;;;-1.11;100.00;93778.75;5108765;28;20500;-76
2022/02/06 05:58:34;;;;;;;27.92;18.75;;;;;;;-1.15;100.00;93769.84;5089818;28;20372;-76
2022/02/06 06:01:01;;;;;;;33.03;21.77;;;;;;;-1.09;100.00;93781.97;5089646;28;20051;-76
2022/02/06 06:03:28;;;;;;;36.25;22.70;;;;;;;-1.11;100.00;93778.75;5089830;28;20097;-78
2022/02/06 06:05:54;;;;;;;44.67;25.42;;;;;;;-1.07;100.00;93786.88;5098149;28;20120;-77
2022/02/06 06:08:21;;;;;;;45.30;25.17;;;;;;;-1.04;100.00;93786.63;5109953;28;20040;-77
2022/02/06 06:10:49;;;;;;;44.67;26.60;;;;;;;-1.02;100.00;93789.81;5109976;28;20523;-76
2022/02/06 06:13:17;;;;;;;49.60;28.33;;;;;;;-1.03;100.00;93783.19;5110024;28;20036;-76
2022/02/06 06:15:43;;;;;;;48.58;29.23;;;;;;;-0.99;100.00;93797.16;5109796;28;20605;-76
2022/02/06 06:18:13;;;;;;;48.92;27.83;;;;;;;-1.10;100.00;93767.75;5101552;28;20051;-76
2022/02/06 06:20:42;;;;;;;46.92;28.30;;;;;;;-0.97;100.00;93792.00;5089654;28;20459;-76
2022/02/06 06:23:09;;;;;;;56.60;33.15;;;;;;;-1.09;100.00;93781.97;5094797;28;20052;-76
2022/02/06 06:25:39;;;;;;;65.50;38.80;;;;;;;-0.98;100.00;93808.03;5109445;28;20043;-76
2022/02/06 06:28:08;;;;;;;69.95;41.25;;;;;;;-0.91;100.00;93808.31;5109310;28;20043;-76
2022/02/06 06:30:35;;;;;;;93.85;52.97;;;;;;;-0.98;100.00;93803.78;5105410;28;20040;-76
2022/02/06 06:33:02;;;;;;;93.93;53.35;;;;;;;-0.98;100.00;93811.34;5089255;28;20047;-76
2022/02/06 06:35:30;;;;;;;62.20;36.47;;;;;;;-1.05;100.00;93806.91;5089211;28;20048;-76
2022/02/06 06:37:58;;;;;;;64.72;37.20;;;;;;;-1.11;100.00;93793.09;5089173;28;20048;-76
2022/02/06 06:40:25;;;;;;;70.20;40.90;;;;;;;-0.82;100.00;93802.53;5089162;28;20506;-76
2022/02/06 06:42:52;;;;;;;70.47;42.83;;;;;;;-0.72;100.00;93808.44;5088668;28;20058;-76
2022/02/06 06:45:22;;;;;;;70.63;41.00;;;;;;;-0.67;100.00;93815.63;5089193;28;20491;-76
2022/02/06 06:47:52;;;;;;;56.10;33.88;;;;;;;-0.87;100.00;93766.81;5089120;28;20039;-76
2022/02/06 06:50:19;;;;;;;61.78;38.70;;;;;;;-0.61;100.00;93802.50;5089444;28;20046;-77
2022/02/06 06:52:47;;;;;;;59.50;40.20;;;;;;;-0.46;100.00;93809.75;5089533;28;20048;-76
2022/02/06 06:55:16;;;;;;;57.45;35.67;;;;;;;-0.31;100.00;93816.06;5089265;28;20036;-77
2022/02/06 06:57:51;;;;;;;54.35;32.10;;;;;;;-0.16;100.00;93813.16;5089390;28;20044;-77
2022/02/06 07:00:36;;;;;;;44.30;26.45;;;;;;;-0.17;100.00;93798.94;5089310;28;20067;-77
2022/02/06 07:03:03;;;;;;;42.35;25.55;;;;;;;-0.07;100.00;93802.28;5089249;28;20048;-77
2022/02/06 07:05:30;;;;;;;39.92;24.77;;;;;;;0.17;100.00;93811.22;5089332;28;20093;-76
2022/02/06 07:07:58;;;;;;;42.03;26.83;;;;;;;0.34;100.00;93811.53;5089476;28;20049;-77
2022/02/06 07:10:24;;;;;;;50.45;31.00;;;;;;;0.42;100.00;93795.69;5092809;28;20047;-77
2022/02/06 07:12:51;;;;;;;48.13;32.20;;;;;;;0.65;100.00;93809.66;5093041;28;20315;-77
2022/02/06 07:15:20;;;;;;;44.78;28.63;;;;;;;0.85;100.00;93814.72;5092728;28;20491;-76
2022/02/06 07:17:47;;;;;;;34.17;21.65;;;;;;;1.06;100.00;93816.25;5092864;28;20044;-77
2022/02/06 07:20:13;;;;;;;32.97;21.48;;;;;;;1.10;100.00;93796.56;5092576;28;20047;-77
2022/02/06 07:22:40;;;;;;;238.45;113.50;;;;;;;1.33;100.00;93802.09;5092710;28;20440;-77
2022/02/06 07:25:08;;;;;;;87.25;39.10;;;;;;;1.51;100.00;93814.03;5092564;28;20476;-76
2022/02/06 07:27:38;;;;;;;65.82;30.70;;;;;;;1.47;100.00;93795.78;5092287;28;20048;-77
2022/02/06 07:30:07;;;;;;;30.75;17.00;;;;;;;1.76;100.00;93829.53;5092502;28;20040;-77
2022/02/06 07:32:38;;;;;;;26.73;16.20;;;;;;;1.65;96.63;93800.91;5089899;28;20040;-77
2022/02/06 07:35:08;;;;;;;37.65;20.95;;;;;;;1.86;99.53;93823.47;5090565;28;20124;-77
2022/02/06 07:37:34;;;;;;;33.67;19.10;;;;;;;1.92;98.19;93818.78;5092394;28;20682;-77
2022/02/06 07:40:01;;;;;;;30.48;17.67;;;;;;;2.07;100.00;93830.03;5092413;28;20097;-76
2022/02/06 07:42:28;;;;;;;20.73;12.82;;;;;;;2.13;98.20;93821.09;5092303;28;20058;-77
2022/02/06 07:44:55;;;;;;;99.32;60.58;;;;;;;2.18;96.09;93813.06;5091761;28;20040;-77
2022/02/06 07:47:24;;;;;;;31.48;19.33;;;;;;;2.31;95.24;93817.78;5092303;28;20047;-77
2022/02/06 07:49:57;;;;;;;57.50;25.27;;;;;;;2.40;97.67;93817.69;5092285;28;20056;-77
2022/02/06 07:52:25;;;;;;;41.35;23.77;;;;;;;2.62;94.77;93827.56;5091921;28;20051;-77
2022/02/06 07:54:53;;;;;;;46.35;29.48;;;;;;;2.73;95.07;93832.41;5092543;28;20109;-77
2022/02/06 07:57:21;;;;;;;54.85;30.08;;;;;;;2.79;93.67;93828.50;5092702;28;20448;-77
2022/02/06 07:59:47;;;;;;;42.25;23.88;;;;;;;2.86;96.30;93821.88;5091755;28;20055;-77
2022/02/06 08:02:15;;;;;;;54.40;27.35;;;;;;;2.99;97.50;93816.44;5091590;28;20062;-77
2022/02/06 08:04:45;;;;;;;80.70;36.63;;;;;;;3.08;91.15;93829.97;5091519;28;20052;-77
2022/02/06 08:07:14;;;;;;;73.90;34.75;;;;;;;3.20;93.92;93822.94;5091620;28;20589;-77
2022/02/06 08:09:50;;;;;;;88.03;38.17;;;;;;;3.26;95.88;93822.34;5091858;28;20044;-77
2022/02/06 08:12:25;;;;;;;89.60;35.53;;;;;;;3.34;93.64;93821.59;5091887;28;20070;-77
2022/02/06 08:14:54;;;;;;;77.38;32.53;;;;;;;3.33;91.38;93819.97;5091613;28;20044;-77
2022/02/06 08:17:25;;;;;;;67.82;30.20;;;;;;;3.37;91.18;93823.81;5091626;28;20048;-77
2022/02/06 08:19:52;;;;;;;72.15;30.10;;;;;;;3.38;90.85;93814.47;5091293;28;20858;-77
2022/02/06 08:22:21;;;;;;;63.33;29.15;;;;;;;3.52;95.19;93810.56;5091366;28;20547;-78
2022/02/06 08:24:49;;;;;;;63.13;30.30;;;;;;;3.69;93.13;93808.91;5091049;28;20040;-77
2022/02/06 08:27:17;;;;;;;43.70;19.70;;;;;;;3.86;93.13;93809.78;5091050;28;20475;-78
2022/02/06 08:29:45;;;;;;;44.65;20.92;;;;;;;3.95;88.67;93801.22;5091456;28;20042;-78
2022/02/06 08:32:13;;;;;;;32.50;15.23;;;;;;;4.22;86.93;93816.41;5108523;28;20209;-77
2022/02/06 08:34:40;;;;;;;38.67;15.13;;;;;;;4.38;83.08;93810.53;5111683;28;20390;-77
2022/02/06 08:37:07;;;;;;;28.42;13.40;;;;;;;4.52;80.13;93809.94;5111740;28;20130;-78
2022/02/06 08:39:37;;;;;;;21.63;11.25;;;;;;;4.61;80.50;93807.38;5111219;28;20088;-77
2022/02/06 08:42:06;;;;;;;18.02;7.75;;;;;;;4.68;78.40;93803.28;5111384;28;20507;-77
2022/02/06 08:44:34;;;;;;;15.45;6.93;;;;;;;4.59;70.78;93786.41;5110960;28;20043;-77
2022/02/06 08:47:01;;;;;;;18.92;8.65;;;;;;;4.85;75.30;93810.91;5111135;28;20054;-77
2022/02/06 08:49:28;;;;;;;13.70;6.50;;;;;;;4.81;75.20;93798.50;5111589;28;20397;-77
2022/02/06 08:51:55;;;;;;;13.00;6.30;;;;;;;4.84;72.85;93802.47;5111358;28;20077;-77
2022/02/06 08:54:25;;;;;;;19.52;10.02;;;;;;;4.79;62.60;93820.78;5111053;28;20040;-77
2022/02/06 08:56:54;;;;;;;26.70;13.35;;;;;;;4.90;73.39;93817.13;5111204;28;20128;-77
2022/02/06 08:59:20;;;;;;;24.90;11.20;;;;;;;5.00;68.13;93818.72;5111847;28;20043;-77
2022/02/06 09:01:47;;;;;;;24.20;11.75;;;;;;;5.10;75.82;93816.00;5111417;28;20043;-77
2022/02/06 09:04:14;;;;;;;25.08;15.18;;;;;;;5.23;72.07;93813.75;5110625;28;20506;-77
2022/02/06 09:06:41;;;;;;;28.55;15.07;;;;;;;5.12;64.79;93808.97;5110706;28;20089;-77
2022/02/06 09:09:09;;;;;;;38.65;17.70;;;;;;;4.75;63.64;93801.69;5106363;28;20044;-78
2022/02/06 09:11:35;;;;;;;32.08;15.43;;;;;;;4.79;66.98;93812.34;5108921;28;20042;-77
2022/02/06 09:14:04;;;;;;;31.42;14.40;;;;;;;4.89;68.22;93818.06;5110690;28;20055;-78
2022/02/06 09:16:31;;;;;;;25.63;13.48;;;;;;;4.93;67.37;93816.00;5110915;28;20395;-77
2022/02/06 09:18:59;;;;;;;23.38;11.57;;;;;;;4.56;65.77;93823.13;5096066;28;20063;-77
2022/02/06 09:21:26;;;;;;;22.55;11.48;;;;;;;4.61;64.54;93820.91;5090144;28;20056;-77
2022/02/06 09:23:53;;;;;;;27.70;13.35;;;;;;;4.74;69.44;93822.19;5090196;28;20052;-77
2022/02/06 09:26:21;;;;;;;41.92;21.70;;;;;;;4.85;67.02;93814.25;5090398;28;20036;-77
2022/02/06 09:28:48;;;;;;;45.47;24.40;;;;;;;4.75;73.36;93771.16;5089977;28;20036;-77
2022/02/06 09:31:23;;;;;;;31.00;15.05;;;;;;;5.27;76.50;93812.47;5089554;28;20097;-77
2022/02/06 09:36:15;;;;;;;26.35;12.10;;;;;;;5.36;63.88;93820.88;5090111;28;20131;-77
2022/02/06 09:38:42;;;;;;;28.40;11.45;;;;;;;5.14;63.94;93822.38;5089832;28;20051;-77
2022/02/06 09:41:09;;;;;;;21.35;10.57;;;;;;;4.77;64.22;93822.66;5089820;28;20040;-77
2022/02/06 09:43:37;;;;;;;21.85;10.35;;;;;;;4.80;68.31;93798.66;5089665;28;20052;-78
2022/02/06 09:46:05;;;;;;;25.80;10.93;;;;;;;5.00;69.91;93804.22;5089976;28;20052;-78
2022/02/06 09:48:33;;;;;;;22.92;11.55;;;;;;;5.14;76.26;93787.50;5090089;28;20051;-78
2022/02/06 09:51:01;;;;;;;34.83;15.32;;;;;;;5.32;73.67;93782.22;5089714;28;20055;-78
2022/02/06 09:53:28;;;;;;;26.45;11.68;;;;;;;5.19;63.75;93785.25;5089508;28;20040;-78
2022/02/06 09:55:57;;;;;;;24.90;11.07;;;;;;;5.11;63.46;93779.38;5089406;28;20044;-78
2022/02/06 09:58:45;;;;;;;21.75;10.52;;;;;;;5.25;65.48;93790.66;5089768;28;20044;-78
2022/02/06 10:01:14;;;;;;;22.75;10.40;;;;;;;5.20;70.09;93774.09;5089292;28;20048;-78
2022/02/06 10:03:45;;;;;;;26.63;13.73;;;;;;;5.35;71.58;93768.34;5089467;28;20544;-78
2022/02/06 10:06:20;;;;;;;23.75;10.40;;;;;;;5.48;64.98;93772.94;5089724;28;20812;-78
2022/02/06 10:08:50;;;;;;;16.38;8.15;;;;;;;5.61;65.24;93760.47;5089753;28;20048;-78
2022/02/06 10:11:18;;;;;;;16.85;8.05;;;;;;;5.78;72.09;93757.06;5089643;28;20036;-78
2022/02/06 10:13:46;;;;;;;19.67;8.90;;;;;;;5.84;71.27;93746.97;5095427;28;20510;-78
2022/02/06 10:16:15;;;;;;;14.20;7.68;;;;;;;5.85;61.19;93745.25;5108199;28;20430;-79
2022/02/06 10:18:46;;;;;;;11.50;6.30;;;;;;;5.97;64.27;93735.47;5100170;28;20062;-79
2022/02/06 10:21:14;;;;;;;30.77;15.90;;;;;;;6.04;69.57;93733.84;5088696;28;20062;-79
2022/02/06 10:23:47;;;;;;;23.40;12.85;;;;;;;6.13;68.98;93721.84;5090833;28;20126;-79
2022/02/06 10:26:27;;;;;;;16.38;7.38;;;;;;;6.35;65.17;93730.44;5098121;28;20051;-80
2022/02/06 10:29:11;;;;;;;17.50;8.52;;;;;;;6.33;70.75;93717.09;5101019;28;20417;-80
2022/02/06 10:31:40;;;;;;;16.58;7.82;;;;;;;6.42;67.87;93720.38;5096634;28;20044;-80
2022/02/06 10:34:20;;;;;;;13.52;6.90;;;;;;;6.18;58.80;93714.47;5101754;28;20046;-80
2022/02/06 10:36:47;;;;;;;12.18;6.50;;;;;;;6.30;67.67;93702.13;5109886;28;20046;-80
2022/02/06 10:39:22;;;;;;;14.75;7.05;;;;;;;6.32;58.27;93715.50;5109744;28;20108;-80
2022/02/06 10:41:49;;;;;;;13.40;6.07;;;;;;;6.41;64.49;93709.38;5110008;28;20054;-80
2022/02/06 10:44:18;;;;;;;23.10;11.98;;;;;;;6.53;66.23;93698.75;5111984;28;20047;-80
2022/02/06 10:46:48;;;;;;;19.27;8.57;;;;;;;6.54;60.89;93698.56;5113937;28;20130;-80
2022/02/06 10:49:17;;;;;;;55.53;27.52;;;;;;;6.66;64.03;93695.59;5113181;28;20039;-80
2022/02/06 10:51:48;;;;;;;27.05;16.77;;;;;;;6.70;61.28;93693.53;5113761;28;20055;-80
2022/02/06 10:54:18;;;;;;;15.15;7.43;;;;;;;6.75;57.75;93681.81;5113214;28;20051;-79
2022/02/06 10:57:04;;;;;;;10.55;6.70;;;;;;;6.97;63.36;93686.22;5113427;28;20497;-79
2022/02/06 10:59:46;;;;;;;8.57;4.03;;;;;;;6.85;62.07;93663.69;5113174;28;20047;-79
2022/02/06 11:02:20;;;;;;;14.10;5.32;;;;;;;7.13;63.20;93677.63;5113517;28;20036;-80
2022/02/06 11:05:06;;;;;;;11.63;4.93;;;;;;;7.24;60.41;93679.72;5113127;28;20483;-79
2022/02/06 11:07:33;;;;;;;;;;;;;;;7.34;60.96;93666.66;5113781;28;20743;-80
2022/02/06 11:10:07;;;;;;;12.20;4.55;;;;;;;7.22;58.23;93671.44;5113088;28;19927;-79
2022/02/06 11:12:34;;;;;;;9.43;4.57;;;;;;;7.06;52.90;93659.63;5113315;28;20039;-79
2022/02/06 11:15:03;;;;;;;9.85;4.82;;;;;;;6.92;54.28;93666.31;5112956;28;20043;-79
2022/02/06 11:17:34;;;;;;;9.98;5.60;;;;;;;6.89;54.03;93654.69;5110317;28;20043;-79
2022/02/06 11:20:06;;;;;;;13.07;5.55;;;;;;;6.98;54.88;93654.63;5092552;28;20051;-80
2022/02/06 11:22:33;;;;;;;9.55;4.35;;;;;;;7.00;61.91;93648.38;5092583;28;20052;-80
2022/02/06 11:25:04;;;;;;;8.98;5.05;;;;;;;7.09;62.57;93649.09;5092647;28;20449;-79
2022/02/06 11:27:32;;;;;;;13.40;9.57;;;;;;;7.22;63.37;93640.75;5091985;28;20059;-80
2022/02/06 11:29:59;;;;;;;23.42;15.45;;;;;;;7.34;60.73;93641.13;5092753;28;20044;-79
2022/02/06 11:32:27;;;;;;;11.30;5.40;;;;;;;7.39;56.44;93632.91;5092224;28;20051;-79
2022/02/06 11:34:56;;;;;;;11.25;3.80;;;;;;;7.47;58.32;93628.50;5092516;28;20044;-79
2022/02/06 11:43:54;;;;;;;10.90;6.57;;;;;;;7.74;61.05;93617.75;5091967;28;20653;-79
2022/02/06 11:46:26;;;;;;;8.32;5.10;;;;;;;7.77;60.45;93599.47;5092035;28;20055;-79
2022/02/06 11:49:04;;;;;;;11.95;7.00;;;;;;;7.92;61.92;93601.97;5092224;28;20050;-79
2022/02/06 11:51:31;;;;;;;15.05;7.70;;;;;;;7.99;61.07;93602.03;5091904;28;20491;-80
2022/02/06 11:54:19;;;;;;;6.78;2.10;;;;;;;7.81;58.52;93564.09;5091641;28;20391;-79
2022/02/06 11:56:46;;;;;;;9.98;5.57;;;;;;;8.04;59.44;93591.28;5091728;28;20040;-79
2022/02/06 11:59:14;;;;;;;11.77;5.65;;;;;;;8.00;60.06;93586.50;5091756;28;20817;-79
2022/02/06 12:01:43;;;;;;;11.23;6.97;;;;;;;8.06;61.01;93584.97;5092077;28;20036;-78
2022/02/06 12:04:20;;;;;;;9.40;5.60;;;;;;;7.98;58.65;93580.81;5091969;28;20059;-79
2022/02/06 12:06:58;;;;;;;6.22;3.72;;;;;;;7.91;60.02;93558.69;5091684;28;20097;-79
2022/02/06 12:09:29;;;;;;;8.48;4.10;;;;;;;8.02;60.75;93571.75;5091502;28;20051;-78
2022/02/06 12:12:24;;;;;;;4.38;2.80;;;;;;;7.97;61.38;93561.28;5091656;28;20040;-79
2022/02/06 12:15:15;;;;;;;6.80;4.33;;;;;;;7.97;60.96;93565.63;5091768;28;20043;-79
2022/02/06 12:18:05;;;;;;;4.53;2.35;;;;;;;7.91;61.25;93546.69;5094342;28;20035;-79
2022/02/06 12:20:45;;;;;;;8.90;6.60;;;;;;;7.86;60.38;93542.13;5111686;28;20035;-79
2022/02/06 12:23:37;;;;;;;5.68;3.03;;;;;;;7.93;61.30;93557.53;5105222;28;20048;-78
2022/02/06 12:26:41;;;;;;;5.15;3.97;;;;;;;7.70;60.74;93519.38;5089964;28;20168;-78
2022/02/06 12:29:11;;;;;;;5.72;3.15;;;;;;;7.84;62.74;93546.66;5091547;28;20075;-78
2022/02/06 12:31:47;;;;;;;4.00;2.45;;;;;;;7.75;63.16;93540.06;5090921;28;20048;-78
2022/02/06 12:37:22;;;;;;;;;;;;;;;7.94;63.50;93554.00;5090598;28;20126;-77
2022/02/06 12:39:50;;;;;;;7.50;4.03;;;;;;;7.82;64.75;93524.78;5091101;28;19915;-77
2022/02/06 12:42:26;;;;;;;25.90;10.63;;;;;;;7.96;65.03;93543.59;5090916;28;20079;-77
2022/02/06 12:44:54;;;;;;;25.73;11.48;;;;;;;7.97;65.05;93538.25;5090897;28;20055;-78
2022/02/06 12:47:20;;;;;;;15.70;6.75;;;;;;;8.00;64.59;93539.66;5090910;28;20044;-77
2022/02/06 12:49:48;;;;;;;8.07;4.43;;;;;;;7.97;64.77;93527.25;5090985;28;20094;-77
2022/02/06 12:52:15;;;;;;;19.00;10.13;;;;;;;7.96;64.15;93518.78;5090818;28;20098;-78
2022/02/06 12:54:42;;;;;;;22.00;8.77;;;;;;;8.02;63.77;93527.50;5090555;28;20093;-78
2022/02/06 12:57:09;;;;;;;15.48;7.70;;;;;;;8.02;64.82;93528.28;5090923;28;20079;-78
2022/02/06 12:59:39;;;;;;;6.75;3.55;;;;;;;7.97;64.15;93519.59;5096326;28;20039;-78
2022/02/06 13:02:08;;;;;;;6.50;3.20;;;;;;;8.00;64.73;93519.19;5110858;28;20035;-78